Flight Track Log - Related Links

Times and Time Zones

All times are in EDT time to prevent confusion due to time zone crossing. See the WBR2628 flight status page for this flight to view local times or setup timezone preferences in your user account.

Time Position Orientation Groundspeed Altitude Reporting Facility
EDT Latitude Longitude Course Direction KTS MPH feet Rate Location/Type
Mon 01:09:45 PM 38.7500 -90.3167 345° North 106 122 1,600  Level Gateway (St. Louis) TRACON
Mon 01:10:45 PM 38.7833 -90.3167 360° North 136 157 2,200 522 Climbing Gateway (St. Louis) TRACON
Mon 01:11:17 PM 38.8025 -90.3239 344° North 128 147 2,400 645 Climbing Kansas City Center
Mon 01:12:18 PM 38.8492 -90.3300 354° North 136 157 3,200 726 Climbing Kansas City Center
Mon 01:13:21 PM 38.8889 -90.3336 356° North 142 163 3,900 677 Climbing Kansas City Center
Mon 01:14:22 PM 38.9281 -90.3331 North 142 163 4,600 677 Climbing Kansas City Center
Mon 01:15:00 PM 38.9704 -90.4457 345° North  Level FlightAware Approximate
Mon 01:15:25 PM 38.9656 -90.3378 354° North 137 158 5,300  Level Kansas City Center
Mon 01:16:26 PM 39.0031 -90.3489 347° North 138 159 5,900 288 Climbing Kansas City Center
Mon 01:17:30 PM 39.0436 -90.3611 347° North 150 173 5,900  Level Kansas City Center
Mon 01:18:30 PM 39.0936 -90.3875 338° Northwest 161 185 5,900 48 Level Kansas City Center
Mon 01:19:34 PM 39.1339 -90.4058 341° North 155 178 6,000 48 Climbing Kansas City Center
Mon 01:20:34 PM 39.1750 -90.4228 342° North 155 178 6,000  Level Kansas City Center
Mon 01:21:36 PM 39.2161 -90.4406 341° North 157 181 6,000 -48 Level Kansas City Center
Mon 01:22:39 PM 39.2589 -90.4542 346° North 157 181 5,900 -49 Descending Kansas City Center
Mon 01:23:39 PM 39.3075 -90.4758 341° North 155 178 5,900  Level Kansas City Center
Mon 01:24:43 PM 39.3478 -90.4936 341° North 155 178 5,900  Level Kansas City Center
Mon 01:25:43 PM 39.3881 -90.5142 338° Northwest 156 180 5,900  Level Kansas City Center
Mon 01:26:48 PM 39.4311 -90.5292 345° North 158 182 5,900 48 Level Kansas City Center
Mon 01:27:48 PM 39.4714 -90.5461 342° North 157 181 6,000  Climbing Kansas City Center
Mon 01:28:52 PM 39.5108 -90.5664 338° Northwest 154 177 5,900  Descending Kansas City Center
Mon 01:29:53 PM 39.5567 -90.5881 340° North 150 173 6,000  Climbing Kansas City Center
Mon 01:30:56 PM 39.5978 -90.5925 355° North 147 169 5,900 -48 Descending Kansas City Center
Mon 01:31:57 PM 39.6394 -90.6000 352° North 150 173 5,900  Level Kansas City Center
Mon 01:32:59 PM 39.6794 -90.6100 349° North 149 171 5,900 49 Level Kansas City Center
Mon 01:34:00 PM 39.7197 -90.6161 353° North 145 167 6,000  Climbing Kansas City Center
Mon 01:35:04 PM 39.7589 -90.6239 351° North 144 166 5,900 -48 Descending Kansas City Center
Mon 01:36:05 PM 39.8075 -90.6331 352° North 147 169 5,900  Level Kansas City Center
Mon 01:37:08 PM 39.8472 -90.6422 350° North 145 167 5,900  Level Kansas City Center
Mon 01:38:08 PM 39.8856 -90.6561 344° North 144 166 5,900  Level Kansas City Center
Mon 01:39:13 PM 39.9247 -90.6678 347° North 144 166 5,900  Level Kansas City Center
Mon 01:40:13 PM 39.9647 -90.6819 345° North 146 168 5,900 49 Level Kansas City Center
Mon 01:41:16 PM 40.0031 -90.6956 345° North 144 166 6,000  Climbing Kansas City Center
Mon 01:42:17 PM 40.0458 -90.7106 345° North 143 165 5,900 -48 Descending Kansas City Center
Mon 01:43:20 PM 40.0847 -90.7222 347° North 144 166 5,900 48 Level Kansas City Center
Mon 01:44:21 PM 40.1236 -90.7347 346° North 144 166 6,000  Climbing Kansas City Center
Mon 01:45:27 PM 40.1664 -90.7592 336° Northwest 145 167 5,900 -47 Descending Chicago Center
Mon 01:46:29 PM 40.2031 -90.7808 336° Northwest 145 167 5,900  Level Chicago Center
Mon 01:47:31 PM 40.2383 -90.8031 334° Northwest 145 167 5,900  Level Chicago Center
Mon 01:48:33 PM 40.2828 -90.8308 335° Northwest 146 168 5,900 48 Level Chicago Center
Mon 01:49:35 PM 40.3206 -90.8531 336° Northwest 147 169 6,000 50 Climbing Chicago Center
Mon 01:50:33 PM 40.3583 -90.8753 336° Northwest 148 170 6,000  Level Kansas City Center
Mon 01:51:39 PM 40.3950 -90.9006 332° Northwest 149 171 6,000  Level Chicago Center
Mon 01:52:41 PM 40.4397 -90.9294 334° Northwest 150 173 6,000 -48 Level Chicago Center
Mon 01:53:43 PM 40.4769 -90.9564 331° Northwest 152 175 5,900 -242 Descending Chicago Center
Mon 01:54:45 PM 40.5136 -90.9844 330° Northwest 153 176 5,500 -532 Descending Chicago Center
Mon 01:55:47 PM 40.5500 -91.0142 328° Northwest 154 177 4,800 -629 Descending Chicago Center
Mon 01:56:49 PM 40.5872 -91.0414 331° Northwest 154 177 4,200 -581 Descending Chicago Center
Mon 01:57:51 PM 40.6244 -91.0661 333° Northwest 153 176 3,600 -629 Descending Chicago Center
Mon 01:58:53 PM 40.6608 -91.0942 330° Northwest 153 176 2,900 -677 Descending Chicago Center
Mon 02:00:00 PM 40.7058 -91.0978 357° North  Level FlightAware Approximate
Mon 02:07:00 PM 40.7667 -91.1167 339° North  Level FlightAware Approximate
Mon 02:08:00 PM 40.7832 -91.1255 339° North  Level Estimated

Login

Don't have an account? Register now (free) for customized features, flight alerts, and more!